Time;durP1;ratioP1;P1;durP2;ratioP2;P2;SDS_P1;SDS_P2;PMS_P1;PMS_P2;Temp;Humidity;BMP_temperature;BMP_pressure;BME280_temperature;BME280_humidity;BME280_pressure;Samples;Min_cycle;Max_cycle;Signal;HPM_P1;HPM_P2
2024/02/14 00:00:03;;;;;;;7.07;3.40;;;;;;;6.45;100.00;101648.78;4995489;28;20476;-77
2024/02/14 00:02:28;;;;;;;11.60;3.93;;;;;;;6.41;100.00;101643.91;5007231;28;20447;-77
2024/02/14 00:04:54;;;;;;;8.43;4.10;;;;;;;6.39;100.00;101637.88;5013766;28;20443;-77
2024/02/14 00:07:21;;;;;;;8.27;3.60;;;;;;;6.46;100.00;101625.63;5013732;28;20188;-78
2024/02/14 00:09:47;;;;;;;10.10;3.73;;;;;;;6.37;100.00;101600.72;5013515;28;20213;-76
2024/02/14 00:12:15;;;;;;;7.57;3.93;;;;;;;5.69;100.00;101509.81;4994233;28;20443;-77
2024/02/14 00:14:40;;;;;;;7.23;3.27;;;;;;;5.46;100.00;101485.44;5013440;28;20506;-77
2024/02/14 00:17:07;;;;;;;6.97;3.20;;;;;;;6.46;100.00;101607.81;5010549;28;20479;-77
2024/02/14 00:19:32;;;;;;;10.30;4.10;;;;;;;6.36;100.00;101608.84;5011297;28;20235;-77
2024/02/14 00:21:57;;;;;;;13.13;4.00;;;;;;;5.97;100.00;101527.44;5015552;28;20443;-77
2024/02/14 00:24:26;;;;;;;8.13;3.70;;;;;;;6.23;100.00;101562.13;5015025;28;20762;-77
2024/02/14 00:26:52;;;;;;;7.87;3.80;;;;;;;6.11;100.00;101558.88;4997155;28;20180;-77
2024/02/14 00:29:17;;;;;;;9.20;4.20;;;;;;;6.18;100.00;101566.25;5010631;28;20477;-80
2024/02/14 00:31:44;;;;;;;9.40;3.73;;;;;;;6.14;100.00;101564.88;5009416;28;20534;-77
2024/02/14 00:34:10;;;;;;;7.33;3.70;;;;;;;6.22;100.00;101563.13;5014874;28;20695;-78
2024/02/14 00:36:36;;;;;;;8.03;3.80;;;;;;;6.35;100.00;101578.72;4997641;28;20497;-77
2024/02/14 00:39:02;;;;;;;8.23;3.63;;;;;;;6.03;100.00;101537.47;4997601;28;21068;-76
2024/02/14 00:41:29;;;;;;;9.90;4.50;;;;;;;6.10;100.00;101586.50;5011947;28;20516;-76
2024/02/14 00:43:56;;;;;;;10.07;3.80;;;;;;;6.03;100.00;101550.78;4995976;28;20943;-77
2024/02/14 00:46:21;;;;;;;7.40;3.83;;;;;;;5.85;100.00;101497.50;4992703;28;20505;-77
2024/02/14 00:48:47;;;;;;;10.30;4.20;;;;;;;6.37;100.00;101598.06;5009693;28;20442;-78
2024/02/14 00:51:12;;;;;;;7.37;3.77;;;;;;;6.44;100.00;101606.28;5000314;28;20187;-78
2024/02/14 00:53:38;;;;;;;9.70;4.40;;;;;;;6.19;100.00;101554.59;4990498;28;20188;-79
2024/02/14 00:56:04;;;;;;;8.90;4.30;;;;;;;6.29;100.00;101560.69;5006401;28;20215;-78
2024/02/14 00:58:29;;;;;;;10.07;4.43;;;;;;;6.40;100.00;101572.94;4986472;28;20185;-78
2024/02/14 01:00:54;;;;;;;7.30;3.60;;;;;;;6.19;100.00;101522.63;4992036;28;20260;-77
2024/02/14 01:03:20;;;;;;;9.20;4.27;;;;;;;6.14;100.00;101511.59;5009459;28;20192;-76
2024/02/14 01:05:47;;;;;;;11.87;4.63;;;;;;;6.42;100.00;101584.25;5013206;28;20191;-77
2024/02/14 01:08:12;;;;;;;10.17;4.70;;;;;;;5.39;100.00;101402.72;5011245;28;20186;-77
2024/02/14 01:10:38;;;;;;;9.70;4.10;;;;;;;6.53;100.00;101562.72;4987483;28;20460;-77
2024/02/14 01:13:04;;;;;;;7.50;3.80;;;;;;;6.46;100.00;101554.50;5007205;28;20199;-77
2024/02/14 01:15:30;;;;;;;11.53;4.50;;;;;;;6.34;100.00;101548.56;5010340;28;20208;-78
2024/02/14 01:17:55;;;;;;;8.73;4.50;;;;;;;6.31;100.00;101546.22;5009973;28;20521;-78
2024/02/14 01:20:21;;;;;;;8.80;4.53;;;;;;;6.20;100.00;101540.28;4986299;28;20276;-76
2024/02/14 01:22:46;;;;;;;9.37;5.20;;;;;;;6.38;100.00;101530.44;4990444;28;20189;-77
2024/02/14 01:25:12;;;;;;;13.70;4.53;;;;;;;6.45;100.00;101560.84;4991279;28;20177;-76
2024/02/14 01:27:38;;;;;;;7.20;4.60;;;;;;;6.35;100.00;101557.41;4990053;28;20277;-80
2024/02/14 01:30:05;;;;;;;10.70;5.33;;;;;;;6.14;100.00;101519.59;4996699;28;20196;-78
2024/02/14 01:32:31;;;;;;;8.27;4.90;;;;;;;6.42;100.00;101555.81;4993002;28;20543;-78
2024/02/14 01:34:57;;;;;;;10.00;5.80;;;;;;;5.80;100.00;101427.06;4997506;28;21208;-77
2024/02/14 01:37:22;;;;;;;9.40;5.83;;;;;;;6.00;100.00;101491.66;5008855;28;20646;-77
2024/02/14 01:39:47;;;;;;;9.47;5.57;;;;;;;6.16;100.00;101506.94;4983405;28;20261;-78
2024/02/14 01:42:13;;;;;;;9.20;6.20;;;;;;;6.52;100.00;101550.38;4989929;28;20207;-77
2024/02/14 01:44:38;;;;;;;9.27;5.90;;;;;;;6.10;100.00;101477.28;5004705;28;20569;-76
2024/02/14 01:47:05;;;;;;;9.80;5.70;;;;;;;6.62;100.00;101550.28;5005285;28;20188;-78
2024/02/14 01:49:31;;;;;;;9.37;6.37;;;;;;;6.36;100.00;101532.41;5008577;28;20239;-77
2024/02/14 01:52:01;;;;;;;9.87;6.30;;;;;;;6.08;100.00;101475.78;5008836;28;20890;-77
2024/02/14 01:54:27;;;;;;;9.03;6.10;;;;;;;6.47;100.00;101534.84;5004559;28;20967;-78
2024/02/14 01:56:54;;;;;;;9.87;7.00;;;;;;;5.74;100.00;101411.69;4997036;28;20861;-76
2024/02/14 01:59:20;;;;;;;9.40;6.90;;;;;;;6.43;100.00;101535.31;5004022;28;20518;-76
2024/02/14 02:01:46;;;;;;;12.27;6.17;;;;;;;6.40;100.00;101555.13;4990663;28;20490;-77
2024/02/14 02:04:12;;;;;;;10.60;7.53;;;;;;;5.67;100.00;101400.84;4990569;28;20177;-77
2024/02/14 02:06:38;;;;;;;10.03;7.50;;;;;;;6.06;100.00;101451.09;4990978;28;20431;-78
2024/02/14 02:09:03;;;;;;;13.67;7.27;;;;;;;6.38;100.00;101532.28;4996767;28;20224;-78
2024/02/14 02:11:30;;;;;;;11.27;7.37;;;;;;;5.52;100.00;101381.88;5011583;28;20615;-80
2024/02/14 02:13:56;;;;;;;11.93;8.70;;;;;;;5.90;100.00;101446.44;5008142;28;20178;-78
2024/02/14 02:16:21;;;;;;;10.23;7.67;;;;;;;6.52;100.00;101540.56;5010006;28;20772;-78
2024/02/14 02:18:49;;;;;;;10.80;8.33;;;;;;;5.47;100.00;101357.59;5007194;28;20535;-79
2024/02/14 02:21:15;;;;;;;12.03;7.90;;;;;;;6.01;100.00;101458.72;5011484;28;20189;-77
2024/02/14 02:23:45;;;;;;;10.80;8.53;;;;;;;6.42;100.00;101523.84;5008306;28;20438;-77
2024/02/14 02:26:11;;;;;;;12.90;8.83;;;;;;;6.46;100.00;101506.53;5004741;28;20659;-78
2024/02/14 02:28:36;;;;;;;11.37;9.07;;;;;;;6.34;100.00;101503.28;5005643;28;20446;-77
2024/02/14 02:31:02;;;;;;;12.20;9.30;;;;;;;6.15;100.00;101473.31;5007696;28;20564;-78
2024/02/14 02:33:27;;;;;;;10.90;8.27;;;;;;;6.45;100.00;101515.53;4988405;28;20566;-76
2024/02/14 02:35:53;;;;;;;10.93;8.47;;;;;;;6.21;100.00;101488.69;5007755;28;20231;-77
2024/02/14 02:38:19;;;;;;;11.10;9.13;;;;;;;6.48;100.00;101533.00;5006023;28;20521;-77
2024/02/14 02:40:45;;;;;;;12.10;8.70;;;;;;;6.49;100.00;101538.19;5005247;28;20200;-77
2024/02/14 02:43:11;;;;;;;10.80;8.73;;;;;;;6.52;100.00;101537.88;5006483;28;20442;-78
2024/02/14 02:45:36;;;;;;;10.67;8.53;;;;;;;5.79;100.00;101422.75;5011052;28;20184;-77
2024/02/14 02:48:02;;;;;;;12.30;8.80;;;;;;;6.57;100.00;101538.28;5011423;28;20250;-77
2024/02/14 02:50:28;;;;;;;10.27;8.57;;;;;;;6.39;100.00;101518.78;5009268;28;20758;-77
2024/02/14 02:52:54;;;;;;;10.00;8.10;;;;;;;6.48;100.00;101525.00;4993421;28;20195;-77
2024/02/14 02:55:20;;;;;;;10.83;8.40;;;;;;;6.48;100.00;101535.69;4997705;28;20467;-77
2024/02/14 02:57:46;;;;;;;10.03;8.10;;;;;;;6.33;100.00;101501.63;4991836;28;20443;-76
2024/02/14 03:00:12;;;;;;;10.80;7.83;;;;;;;6.23;100.00;101468.88;5012410;28;20200;-76
2024/02/14 03:02:41;;;;;;;11.37;8.60;;;;;;;6.62;100.00;101537.78;4992391;28;20258;-77
2024/02/14 03:05:10;;;;;;;10.93;8.63;;;;;;;6.08;100.00;101439.31;4994823;28;20450;-76
2024/02/14 03:07:37;;;;;;;10.43;7.80;;;;;;;6.62;100.00;101532.44;4993180;28;20440;-76
2024/02/14 03:10:03;;;;;;;9.00;7.17;;;;;;;5.83;100.00;101400.97;5012649;28;20561;-76
2024/02/14 03:12:30;;;;;;;10.03;7.13;;;;;;;6.76;100.00;101531.06;4983296;28;20440;-77
2024/02/14 03:14:58;;;;;;;10.53;8.00;;;;;;;6.67;100.00;101532.00;5006396;28;20443;-77
2024/02/14 03:17:23;;;;;;;10.03;7.27;;;;;;;5.84;100.00;101386.69;5011331;28;20459;-77
2024/02/14 03:19:51;;;;;;;9.37;6.97;;;;;;;6.09;100.00;101427.66;4988147;28;20567;-77
2024/02/14 03:22:18;;;;;;;8.67;7.10;;;;;;;5.94;100.00;101391.94;5006843;28;20462;-77
2024/02/14 03:24:46;;;;;;;8.63;6.67;;;;;;;6.82;100.00;101519.75;5011103;28;20447;-77
2024/02/14 03:27:12;;;;;;;8.70;6.50;;;;;;;6.91;100.00;101524.13;5008897;28;20435;-77
2024/02/14 03:29:38;;;;;;;9.60;7.27;;;;;;;6.53;100.00;101461.44;4988408;28;20475;-78
2024/02/14 03:32:08;;;;;;;9.20;6.50;;;;;;;6.56;100.00;101469.94;5007296;28;20187;-77
2024/02/14 03:34:35;;;;;;;7.23;5.30;;;;;;;6.84;100.00;101515.09;5010509;28;20450;-77
2024/02/14 03:37:02;;;;;;;8.80;5.97;;;;;;;6.83;100.00;101512.59;5009030;28;21121;-77
2024/02/14 03:39:28;;;;;;;7.67;5.50;;;;;;;6.95;100.00;101517.50;4989547;28;20464;-77
2024/02/14 03:41:54;;;;;;;10.60;5.20;;;;;;;6.49;100.00;101434.25;5010570;28;21555;-77
2024/02/14 03:44:19;;;;;;;7.70;5.43;;;;;;;6.36;100.00;101412.50;5015775;28;20458;-77
2024/02/14 03:46:47;;;;;;;7.80;5.00;;;;;;;6.08;100.00;101386.03;5006980;28;20475;-77
2024/02/14 03:49:12;;;;;;;6.83;4.57;;;;;;;6.36;100.00;101414.34;5008167;28;20263;-78
2024/02/14 03:51:38;;;;;;;6.70;4.63;;;;;;;7.03;100.00;101535.41;5009101;28;20826;-78
2024/02/14 03:54:03;;;;;;;6.83;4.17;;;;;;;6.97;100.00;101538.66;4990381;28;20200;-77
2024/02/14 03:56:29;;;;;;;6.83;4.40;;;;;;;6.70;100.00;101499.69;4996263;28;20217;-78
2024/02/14 03:58:55;;;;;;;6.63;4.30;;;;;;;6.86;100.00;101537.13;5012234;28;20192;-77
2024/02/14 04:01:20;;;;;;;7.43;4.40;;;;;;;6.95;100.00;101559.34;4992414;28;20465;-76
2024/02/14 04:03:48;;;;;;;7.90;3.83;;;;;;;7.06;100.00;101569.75;4995462;28;20409;-77
2024/02/14 04:06:13;;;;;;;11.17;4.47;;;;;;;6.09;100.00;101421.50;4992236;28;20184;-77
2024/02/14 04:08:39;;;;;;;6.60;4.13;;;;;;;7.06;100.00;101580.44;4990151;28;20446;-77
2024/02/14 04:11:05;;;;;;;6.77;4.27;;;;;;;7.08;100.00;101588.25;4990923;28;20709;-77
2024/02/14 04:13:30;;;;;;;6.50;3.80;;;;;;;6.73;100.00;101548.19;4990535;28;20231;-77
2024/02/14 04:15:55;;;;;;;6.90;4.20;;;;;;;7.00;100.00;101587.22;5012705;28;20237;-77
2024/02/14 04:18:21;;;;;;;6.20;4.17;;;;;;;6.71;100.00;101533.34;5005496;28;20828;-77
2024/02/14 04:20:46;;;;;;;10.50;4.77;;;;;;;6.74;100.00;101565.88;4986192;28;20207;-76
2024/02/14 04:23:12;;;;;;;6.67;3.97;;;;;;;6.70;100.00;101561.84;5012816;28;20212;-77
2024/02/14 04:25:37;;;;;;;6.77;3.80;;;;;;;6.95;100.00;101581.53;5014251;28;20188;-77
2024/02/14 04:28:03;;;;;;;6.23;3.70;;;;;;;6.87;100.00;101562.78;5013582;28;20188;-77
2024/02/14 04:30:29;;;;;;;6.30;4.10;;;;;;;7.13;100.00;101620.66;4990393;28;20208;-77
2024/02/14 04:32:55;;;;;;;6.37;3.57;;;;;;;7.21;100.00;101636.72;5007568;28;20188;-79
2024/02/14 04:35:23;;;;;;;6.13;3.83;;;;;;;7.00;100.00;101616.56;5010185;28;20549;-77
2024/02/14 04:37:49;;;;;;;7.90;4.10;;;;;;;7.04;100.00;101630.44;5011617;28;20188;-76
2024/02/14 04:40:15;;;;;;;6.40;3.80;;;;;;;6.85;100.00;101601.28;5005979;28;20472;-76
2024/02/14 04:42:41;;;;;;;7.00;4.57;;;;;;;7.14;100.00;101651.66;4988590;28;20824;-77
2024/02/14 04:45:08;;;;;;;6.40;4.23;;;;;;;7.29;100.00;101662.59;4989392;28;20448;-77
2024/02/14 04:47:33;;;;;;;6.67;4.07;;;;;;;7.01;100.00;101628.91;4991221;28;20650;-76
2024/02/14 04:50:00;;;;;;;7.07;4.53;;;;;;;7.19;100.00;101668.88;5013977;28;21037;-76
2024/02/14 04:52:26;;;;;;;7.53;4.30;;;;;;;6.68;100.00;101584.31;4993613;28;20536;-76
2024/02/14 04:54:52;;;;;;;7.47;4.67;;;;;;;6.81;100.00;101622.09;5012585;28;20813;-76
2024/02/14 04:57:19;;;;;;;8.67;4.63;;;;;;;6.70;100.00;101603.66;5008119;28;20471;-76
2024/02/14 04:59:45;;;;;;;7.70;4.63;;;;;;;7.38;100.00;101718.56;4995631;28;20577;-77
2024/02/14 05:02:10;;;;;;;7.80;4.53;;;;;;;7.22;100.00;101695.25;4987697;28;20500;-78
2024/02/14 05:04:37;;;;;;;7.93;4.63;;;;;;;7.38;100.00;101728.41;5009378;28;20191;-76
2024/02/14 05:07:04;;;;;;;7.30;4.60;;;;;;;7.37;100.00;101721.38;4991267;28;20185;-76
2024/02/14 05:09:29;;;;;;;7.50;4.90;;;;;;;6.92;100.00;101661.84;4993791;28;20473;-77
2024/02/14 05:11:54;;;;;;;7.57;4.40;;;;;;;7.50;100.00;101735.16;5006268;28;20820;-77
2024/02/14 05:14:20;;;;;;;6.60;4.77;;;;;;;5.87;100.00;101502.66;4989897;28;22380;-77
2024/02/14 05:16:46;;;;;;;7.20;5.20;;;;;;;7.37;100.00;101727.53;5013738;28;20217;-77
2024/02/14 05:19:11;;;;;;;6.90;4.57;;;;;;;7.45;100.00;101756.97;4989018;28;20265;-77
2024/02/14 05:21:37;;;;;;;7.10;4.73;;;;;;;7.24;100.00;101741.28;5009509;28;20193;-77
2024/02/14 05:24:04;;;;;;;6.87;4.90;;;;;;;7.51;100.00;101766.19;5000265;28;20188;-77
2024/02/14 05:26:29;;;;;;;7.40;5.30;;;;;;;7.04;100.00;101683.78;5009195;28;20439;-77
2024/02/14 05:28:55;;;;;;;7.50;5.23;;;;;;;7.25;100.00;101721.63;5012687;28;20458;-78
2024/02/14 05:31:20;;;;;;;8.40;5.90;;;;;;;7.58;100.00;101788.59;4991532;28;20204;-78
2024/02/14 05:33:46;;;;;;;7.70;5.60;;;;;;;7.50;100.00;101775.19;5006538;28;20587;-77
2024/02/14 05:36:11;;;;;;;8.37;6.33;;;;;;;7.60;100.00;101801.78;5008821;28;20274;-77
2024/02/14 05:38:36;;;;;;;8.70;6.20;;;;;;;7.33;100.00;101757.38;5009119;28;20618;-77
2024/02/14 05:41:02;;;;;;;8.07;6.10;;;;;;;7.60;100.00;101810.63;5010079;28;20379;-77
2024/02/14 05:43:27;;;;;;;7.60;5.80;;;;;;;7.52;100.00;101785.69;4990539;28;20196;-77
2024/02/14 05:45:53;;;;;;;8.40;6.00;;;;;;;7.62;100.00;101805.16;5012626;28;20262;-78
2024/02/14 05:48:20;;;;;;;8.80;6.70;;;;;;;7.74;100.00;101827.09;4986831;28;20627;-77
2024/02/14 05:50:45;;;;;;;7.80;5.73;;;;;;;7.74;100.00;101856.47;4992019;28;20212;-78
2024/02/14 05:53:12;;;;;;;8.40;6.20;;;;;;;7.68;100.00;101833.88;5007500;28;20449;-78
2024/02/14 05:55:38;;;;;;;7.70;5.50;;;;;;;7.67;100.00;101833.06;4992001;28;20212;-77
2024/02/14 05:58:03;;;;;;;6.83;4.80;;;;;;;7.50;100.00;101803.72;5008328;28;20451;-77
2024/02/14 06:00:29;;;;;;;7.90;5.20;;;;;;;7.74;100.00;101861.81;5013719;28;20470;-76
2024/02/14 06:02:54;;;;;;;7.90;5.50;;;;;;;7.25;100.00;101747.47;5005779;28;20771;-81
2024/02/14 06:05:20;;;;;;;7.10;4.70;;;;;;;7.89;100.00;101855.72;5010466;28;20189;-78
2024/02/14 06:07:46;;;;;;;7.33;4.80;;;;;;;7.91;100.00;101853.75;5003630;28;20196;-78
2024/02/14 06:10:11;;;;;;;7.80;5.30;;;;;;;7.87;100.00;101849.72;5007528;28;20811;-78
2024/02/14 06:12:38;;;;;;;6.90;4.40;;;;;;;7.38;100.00;101769.25;5007483;28;20734;-79
2024/02/14 06:15:05;;;;;;;6.87;4.20;;;;;;;7.91;100.00;101847.59;5010173;28;20221;-77
2024/02/14 06:17:31;;;;;;;7.37;4.87;;;;;;;7.11;100.00;101722.16;5008001;28;20443;-77
2024/02/14 06:19:58;;;;;;;7.87;5.20;;;;;;;7.72;100.00;101815.72;5016036;28;21012;-78
2024/02/14 06:22:24;;;;;;;6.60;4.33;;;;;;;7.95;100.00;101856.94;5010353;28;20189;-77
2024/02/14 06:24:49;;;;;;;7.40;4.50;;;;;;;8.12;100.00;101877.44;5009861;28;20453;-78
2024/02/14 06:27:16;;;;;;;8.53;5.33;;;;;;;7.69;100.00;101812.38;5017648;28;20181;-78
2024/02/14 06:29:44;;;;;;;6.73;4.17;;;;;;;8.19;100.00;101900.84;5012639;28;20220;-77
2024/02/14 06:32:12;;;;;;;7.23;5.10;;;;;;;7.52;100.00;101793.72;4999412;28;20447;-78
2024/02/14 06:34:38;;;;;;;7.23;5.00;;;;;;;8.25;100.00;101902.94;5012226;28;20531;-78
2024/02/14 06:37:04;;;;;;;8.43;5.83;;;;;;;8.23;100.00;101913.75;5005198;28;22212;-77
2024/02/14 06:39:30;;;;;;;6.63;4.50;;;;;;;7.56;100.00;101797.75;4996777;28;20209;-79
2024/02/14 06:41:57;;;;;;;8.20;5.90;;;;;;;8.25;100.00;101916.28;5016047;28;20263;-76
2024/02/14 06:44:23;;;;;;;7.83;5.30;;;;;;;8.15;100.00;101897.66;4992868;28;20447;-78
2024/02/14 06:46:48;;;;;;;8.00;5.70;;;;;;;7.59;100.00;101792.94;5013535;28;20447;-78
2024/02/14 06:49:15;;;;;;;7.30;4.87;;;;;;;7.30;100.00;101753.19;5011043;28;21202;-76
2024/02/14 06:51:40;;;;;;;8.00;5.90;;;;;;;8.38;100.00;101928.25;5015471;28;20192;-79
2024/02/14 06:54:06;;;;;;;7.70;5.20;;;;;;;8.44;100.00;101925.94;5015095;28;20435;-80
2024/02/14 06:56:31;;;;;;;7.30;4.63;;;;;;;8.07;100.00;101850.38;5016343;28;20212;-79
2024/02/14 06:58:59;;;;;;;8.70;5.53;;;;;;;7.53;100.00;101790.91;5011411;28;20215;-79
2024/02/14 07:01:26;;;;;;;7.63;5.20;;;;;;;8.06;100.00;101885.25;5015857;28;20563;-78
2024/02/14 07:03:53;;;;;;;7.40;5.10;;;;;;;7.90;100.00;101845.91;5011753;28;20447;-77
2024/02/14 07:06:18;;;;;;;8.30;5.67;;;;;;;8.31;100.00;101907.63;5016727;28;20496;-77
2024/02/14 07:08:44;;;;;;;7.70;4.90;;;;;;;8.47;100.00;101931.81;4991629;28;20439;-79
2024/02/14 07:11:11;;;;;;;7.73;5.50;;;;;;;7.93;100.00;101849.09;5015563;28;20265;-79
2024/02/14 07:13:36;;;;;;;8.10;5.30;;;;;;;8.49;100.00;101939.69;4998374;28;20195;-78
2024/02/14 07:16:02;;;;;;;8.03;5.00;;;;;;;8.19;100.00;101877.66;5000163;28;20470;-77
2024/02/14 07:18:27;;;;;;;8.43;5.50;;;;;;;8.56;100.00;101933.56;5005495;28;20201;-78
2024/02/14 07:20:52;;;;;;;7.87;4.73;;;;;;;8.39;100.00;101913.06;5017867;28;20212;-76
2024/02/14 07:23:19;;;;;;;8.13;4.90;;;;;;;8.45;100.00;101904.41;5017776;28;20188;-78
2024/02/14 07:25:44;;;;;;;7.90;5.40;;;;;;;8.62;100.00;101926.75;5017077;28;20185;-77
2024/02/14 07:28:10;;;;;;;7.90;5.63;;;;;;;8.70;100.00;101934.78;4997496;28;20451;-77
2024/02/14 07:30:36;;;;;;;7.67;4.90;;;;;;;8.15;100.00;101834.34;5010143;28;20685;-78
2024/02/14 07:33:01;;;;;;;7.93;5.43;;;;;;;8.48;100.00;101895.25;5000019;28;20447;-79
2024/02/14 07:35:27;;;;;;;9.93;5.83;;;;;;;8.65;100.00;101938.91;4995661;28;20200;-78
2024/02/14 07:37:52;;;;;;;7.97;5.20;;;;;;;8.43;100.00;101910.91;4993062;28;20239;-78
2024/02/14 07:40:18;;;;;;;8.67;5.60;;;;;;;8.66;100.00;101954.00;5011137;28;20701;-78
2024/02/14 07:42:43;;;;;;;8.93;5.53;;;;;;;8.50;100.00;101917.28;5012360;28;20275;-77
2024/02/14 07:45:09;;;;;;;9.10;5.70;;;;;;;8.18;100.00;101885.81;5012817;28;20185;-79
2024/02/14 07:47:34;;;;;;;10.40;5.67;;;;;;;8.68;100.00;101976.91;4997390;28;20197;-79
2024/02/14 07:50:00;;;;;;;8.17;4.87;;;;;;;8.20;100.00;101899.88;5010223;28;20669;-77
2024/02/14 07:52:25;;;;;;;8.67;4.77;;;;;;;8.73;100.00;102000.50;4997457;28;20251;-78
2024/02/14 07:54:54;;;;;;;10.40;6.00;;;;;;;8.57;100.00;101961.13;5010436;28;20243;-77
2024/02/14 07:57:22;;;;;;;12.63;5.50;;;;;;;8.31;100.00;101921.00;5012416;28;20232;-78
2024/02/14 07:59:47;;;;;;;10.00;5.90;;;;;;;8.80;100.00;101997.03;4995635;28;21008;-77
2024/02/14 08:02:13;;;;;;;12.87;6.57;;;;;;;8.42;100.00;101938.63;4999685;28;20546;-77
2024/02/14 08:04:38;;;;;;;12.93;7.00;;;;;;;8.46;100.00;101922.13;4988631;28;20614;-78
2024/02/14 08:07:04;;;;;;;11.53;7.87;;;;;;;8.35;100.00;101898.28;5000626;28;20295;-77
2024/02/14 08:09:30;;;;;;;15.43;7.70;;;;;;;9.09;100.00;102021.78;4994990;28;20212;-78
2024/02/14 08:11:55;;;;;;;15.67;8.97;;;;;;;8.42;100.00;101909.22;5012471;28;20201;-77
2024/02/14 08:14:21;;;;;;;17.53;8.33;;;;;;;8.99;100.00;101987.09;4986094;28;20568;-77
2024/02/14 08:16:46;;;;;;;22.10;10.20;;;;;;;8.14;100.00;101851.41;5012915;28;20241;-78
2024/02/14 08:19:11;;;;;;;24.17;10.00;;;;;;;8.86;100.00;101960.78;5003520;28;20205;-78
2024/02/14 08:21:37;;;;;;;29.60;9.80;;;;;;;9.05;100.00;101978.41;5011142;28;20255;-76
2024/02/14 08:24:03;;;;;;;24.17;9.03;;;;;;;9.21;100.00;101997.22;4993962;28;20196;-78
2024/02/14 08:26:28;;;;;;;20.43;8.27;;;;;;;9.18;100.00;101986.00;4996602;28;20196;-79
2024/02/14 08:28:54;;;;;;;26.17;8.07;;;;;;;8.66;100.00;101893.31;5014955;28;20705;-77
2024/02/14 08:31:20;;;;;;;20.10;7.13;;;;;;;8.87;100.00;101922.31;5010228;28;20262;-77
2024/02/14 08:33:45;;;;;;;20.93;6.37;;;;;;;8.64;100.00;101871.22;4998536;28;20185;-78
2024/02/14 08:36:11;;;;;;;29.33;6.90;;;;;;;9.36;100.00;101975.19;4989157;28;20567;-77
2024/02/14 08:38:36;;;;;;;26.37;6.87;;;;;;;8.36;100.00;101801.91;4996766;28;20246;-78
2024/02/14 08:41:02;;;;;;;23.23;6.40;;;;;;;9.31;100.00;101959.59;4995362;28;20215;-77
2024/02/14 08:43:28;;;;;;;23.73;6.67;;;;;;;8.64;100.00;101857.03;5011511;28;20192;-76
2024/02/14 08:45:55;;;;;;;26.23;6.57;;;;;;;9.19;100.00;101934.97;5010445;28;20448;-77
2024/02/14 08:48:21;;;;;;;29.17;7.20;;;;;;;9.20;100.00;101938.47;4996285;28;20185;-77
2024/02/14 08:50:46;;;;;;;30.93;8.03;;;;;;;9.13;100.00;101922.25;4994600;28;20478;-79
2024/02/14 08:53:13;;;;;;;25.33;7.23;;;;;;;9.17;100.00;101912.91;4997993;28;20609;-77
2024/02/14 08:55:42;;;;;;;24.97;8.33;;;;;;;9.45;100.00;101944.75;5010342;28;20212;-76
2024/02/14 08:58:09;;;;;;;24.37;7.63;;;;;;;9.36;100.00;101903.72;5006664;28;20976;-76
2024/02/14 09:00:38;;;;;;;23.80;7.53;;;;;;;9.42;100.00;101903.06;5013583;28;21271;-80
2024/02/14 09:03:04;;;;;;;25.27;8.33;;;;;;;9.50;100.00;101912.97;5010518;28;20454;-78
2024/02/14 09:05:32;;;;;;;26.27;8.30;;;;;;;9.12;100.00;101856.34;5010253;28;20451;-76
2024/02/14 09:07:59;;;;;;;20.13;8.60;;;;;;;9.50;100.00;101902.25;4993297;28;20469;-76
2024/02/14 09:10:24;;;;;;;29.67;9.23;;;;;;;8.76;100.00;101795.03;5016714;28;20968;-78
2024/02/14 09:12:50;;;;;;;25.23;8.30;;;;;;;9.59;100.00;101936.06;5006597;28;20494;-76
2024/02/14 09:15:16;;;;;;;26.73;8.60;;;;;;;9.67;100.00;101928.03;5010677;28;20251;-78
2024/02/14 09:17:41;;;;;;;24.23;8.23;;;;;;;9.53;100.00;101898.41;4988482;28;20193;-77
2024/02/14 09:20:09;;;;;;;36.20;8.60;;;;;;;9.27;100.00;101862.72;5007041;28;20469;-77
2024/02/14 09:22:38;;;;;;;26.50;9.23;;;;;;;9.50;100.00;101878.97;5009609;28;20184;-77
2024/02/14 09:25:04;;;;;;;33.23;8.60;;;;;;;9.68;100.00;101900.25;5010290;28;20473;-79
2024/02/14 09:27:32;;;;;;;33.80;9.07;;;;;;;9.72;100.00;101874.81;5006430;28;20435;-77
2024/02/14 09:29:59;;;;;;;43.00;10.63;;;;;;;9.76;100.00;101871.78;5008642;28;20558;-77
2024/02/14 09:32:24;;;;;;;30.23;9.37;;;;;;;9.63;100.00;101826.72;5010260;28;20477;-77
2024/02/14 09:34:50;;;;;;;27.20;9.50;;;;;;;9.43;100.00;101788.75;5007836;28;21248;-78
2024/02/14 09:37:16;;;;;;;26.67;10.37;;;;;;;9.58;100.00;101802.31;5012324;28;20215;-77
2024/02/14 09:39:45;;;;;;;32.60;9.63;;;;;;;9.39;100.00;101760.66;4991792;28;20279;-77
2024/02/14 09:42:14;;;;;;;35.57;9.23;;;;;;;9.76;100.00;101813.69;4994580;28;20450;-76
2024/02/14 09:44:40;;;;;;;28.77;9.87;;;;;;;9.78;100.00;101826.88;4989409;28;20448;-78
2024/02/14 09:47:07;;;;;;;26.63;8.27;;;;;;;9.80;100.00;101824.88;5009802;28;20467;-80
2024/02/14 09:49:36;;;;;;;38.10;9.10;;;;;;;9.59;100.00;101786.06;5007294;28;20884;-79
2024/02/14 09:52:05;;;;;;;32.00;10.30;;;;;;;9.68;100.00;101801.13;5009923;28;20835;-78
2024/02/14 09:54:34;;;;;;;29.20;9.63;;;;;;;9.86;100.00;101822.34;5010730;28;20447;-78
2024/02/14 09:57:00;;;;;;;27.90;8.40;;;;;;;9.89;100.00;101821.19;5014561;28;21200;-78
2024/02/14 09:59:26;;;;;;;32.83;8.83;;;;;;;9.98;100.00;101824.69;4990392;28;20462;-76
2024/02/14 10:01:52;;;;;;;23.77;7.77;;;;;;;9.99;100.00;101808.44;5017714;28;20808;-77
2024/02/14 10:04:18;;;;;;;31.23;7.83;;;;;;;9.73;100.00;101790.75;4994771;28;22458;-76
2024/02/14 10:06:44;;;;;;;23.97;6.70;;;;;;;9.93;100.00;101809.13;4992512;28;20432;-77
2024/02/14 10:09:10;;;;;;;24.60;6.87;;;;;;;9.90;100.00;101810.31;5011085;28;20567;-76
2024/02/14 10:11:37;;;;;;;25.60;7.60;;;;;;;9.92;100.00;101816.34;5011674;28;20535;-78
2024/02/14 10:14:03;;;;;;;22.80;7.50;;;;;;;9.83;100.00;101773.63;5013088;28;20314;-77
2024/02/14 10:16:29;;;;;;;26.77;9.53;;;;;;;10.01;100.00;101806.44;4993688;28;20474;-76
2024/02/14 10:18:55;;;;;;;27.50;9.47;;;;;;;10.05;100.00;101813.13;4993928;28;20914;-77
2024/02/14 10:21:21;;;;;;;23.50;9.40;;;;;;;10.08;100.00;101817.31;4996265;28;20188;-78
2024/02/14 10:23:52;;;;;;;21.80;9.43;;;;;;;10.02;100.00;101816.13;5004935;28;20946;-75
2024/02/14 10:26:17;;;;;;;26.63;9.23;;;;;;;9.98;100.00;101814.81;5012446;28;20446;-76
2024/02/14 10:28:43;;;;;;;23.80;9.23;;;;;;;9.89;100.00;101808.66;4996886;28;20508;-76
2024/02/14 10:31:10;;;;;;;24.20;10.40;;;;;;;9.80;100.00;101814.16;5007370;28;20206;-77
2024/02/14 10:33:36;;;;;;;22.13;9.93;;;;;;;10.04;100.00;101862.38;5010505;28;20476;-76
2024/02/14 10:36:02;;;;;;;22.13;10.83;;;;;;;9.98;100.00;101881.81;4995706;28;20550;-79
2024/02/14 10:38:32;;;;;;;24.97;12.87;;;;;;;9.67;100.00;101863.75;5006469;28;20961;-75
2024/02/14 10:41:00;;;;;;;23.33;13.90;;;;;;;10.01;100.00;101896.72;4989391;28;20466;-76
2024/02/14 10:43:28;;;;;;;24.23;12.47;;;;;;;10.06;100.00;101907.78;5012064;28;20517;-77
2024/02/14 10:46:00;;;;;;;25.30;12.90;;;;;;;10.06;100.00;101905.09;5010475;28;20431;-77
2024/02/14 10:48:31;;;;;;;21.23;12.17;;;;;;;9.63;100.00;101848.16;5008421;28;20539;-77
2024/02/14 10:50:58;;;;;;;24.13;12.67;;;;;;;10.01;100.00;101907.44;5013732;28;20459;-78
2024/02/14 10:53:28;;;;;;;19.23;10.93;;;;;;;9.80;100.00;101854.34;4996282;28;20443;-76
2024/02/14 10:55:55;;;;;;;19.10;10.00;;;;;;;9.41;100.00;101778.22;4993569;28;20535;-76
2024/02/14 10:58:24;;;;;;;20.47;9.40;;;;;;;9.99;100.00;101872.78;5010406;28;20440;-76
2024/02/14 11:00:50;;;;;;;19.17;9.23;;;;;;;9.96;100.00;101889.19;5011825;28;20461;-79
2024/02/14 11:03:17;;;;;;;21.00;9.53;;;;;;;9.66;100.00;101840.66;5014804;28;20540;-77
2024/02/14 11:05:46;;;;;;;18.20;8.03;;;;;;;9.45;100.00;101813.53;5007905;28;20463;-77
2024/02/14 11:08:20;;;;;;;17.03;7.17;;;;;;;9.99;100.00;101896.91;4998291;28;20427;-80
2024/02/14 11:10:53;;;;;;;18.90;8.10;;;;;;;9.50;100.00;101841.47;4992466;28;20459;-79
2024/02/14 11:13:19;;;;;;;17.13;7.90;;;;;;;9.59;100.00;101833.44;4995312;28;20471;-79
2024/02/14 11:15:45;;;;;;;18.20;8.47;;;;;;;9.89;100.00;101878.31;4994512;28;20491;-82